createdAt,value
2022-09-21T00:01:10.257Z,14.90
2022-09-21T00:03:37.729Z,14.90
2022-09-21T00:06:09.356Z,14.80
2022-09-21T00:08:36.359Z,14.80
2022-09-21T00:11:04.695Z,14.70
2022-09-21T00:13:33.132Z,14.70
2022-09-21T00:16:00.386Z,14.80
2022-09-21T00:18:27.213Z,14.70
2022-09-21T00:20:54.023Z,14.70
2022-09-21T00:23:20.998Z,14.70
2022-09-21T00:25:47.725Z,14.70
2022-09-21T00:28:14.602Z,14.70
2022-09-21T00:30:41.407Z,14.70
2022-09-21T00:33:08.182Z,14.60
2022-09-21T00:35:34.954Z,14.60
2022-09-21T00:38:02.621Z,14.60
2022-09-21T00:40:30.128Z,14.60
2022-09-21T00:43:13.476Z,14.60
2022-09-21T00:45:40.545Z,14.60
2022-09-21T00:48:07.611Z,14.60
2022-09-21T00:50:35.349Z,14.60
2022-09-21T00:53:04.074Z,14.60
2022-09-21T00:55:33.784Z,14.50
2022-09-21T00:58:03.284Z,14.50
2022-09-21T01:00:30.418Z,14.50
2022-09-21T01:03:01.502Z,14.50
2022-09-21T01:05:29.538Z,14.40
2022-09-21T01:08:00.009Z,14.40
2022-09-21T01:10:27.648Z,14.40
2022-09-21T01:13:04.535Z,14.40
2022-09-21T01:15:40.958Z,14.30
2022-09-21T01:18:17.167Z,14.30
2022-09-21T01:20:43.979Z,14.20
2022-09-21T01:23:29.379Z,14.20
2022-09-21T01:26:05.999Z,14.10
2022-09-21T01:28:49.321Z,14.10
2022-09-21T01:31:21.743Z,14.10
2022-09-21T01:33:51.390Z,14.00
2022-09-21T01:36:20.582Z,14.00
2022-09-21T01:38:58.567Z,14.00
2022-09-21T01:41:26.180Z,13.90
2022-09-21T01:43:55.620Z,13.90
2022-09-21T01:46:25.645Z,13.90
2022-09-21T01:48:54.468Z,13.90
2022-09-21T01:51:22.468Z,13.80
2022-09-21T01:53:52.242Z,13.80
2022-09-21T01:56:24.720Z,13.80
2022-09-21T01:58:57.806Z,13.80
2022-09-21T02:01:25.886Z,13.70
2022-09-21T02:03:59.309Z,13.70
2022-09-21T02:06:28.030Z,13.50
2022-09-21T02:08:55.092Z,13.60
2022-09-21T02:11:22.257Z,13.60
2022-09-21T02:16:42.254Z,13.60
2022-09-21T02:19:14.443Z,13.50
2022-09-21T02:21:50.480Z,13.50
2022-09-21T02:24:22.716Z,13.50
2022-09-21T02:26:51.690Z,13.50
2022-09-21T02:29:42.216Z,13.40
2022-09-21T02:32:10.975Z,13.40
2022-09-21T02:34:46.273Z,13.30
2022-09-21T02:37:23.428Z,13.30
2022-09-21T02:40:04.266Z,13.20
2022-09-21T02:42:33.735Z,13.20
2022-09-21T02:45:07.370Z,13.10
2022-09-21T02:47:37.248Z,13.20
2022-09-21T02:50:07.456Z,13.10
2022-09-21T02:52:35.607Z,13.10
2022-09-21T02:55:02.997Z,13.00
2022-09-21T02:57:30.343Z,13.00
2022-09-21T02:59:57.074Z,12.90
2022-09-21T03:02:23.959Z,13.00
2022-09-21T03:04:50.837Z,12.90
2022-09-21T03:07:17.651Z,12.90
2022-09-21T03:09:44.384Z,13.00
2022-09-21T03:12:11.232Z,13.00
2022-09-21T03:14:38.019Z,13.00
2022-09-21T03:17:04.907Z,12.90
2022-09-21T03:19:31.653Z,12.90
2022-09-21T03:22:00.106Z,13.00
2022-09-21T03:24:45.613Z,12.90
2022-09-21T03:27:19.903Z,12.90
2022-09-21T03:29:47.075Z,12.90
2022-09-21T03:32:14.458Z,13.00
2022-09-21T03:34:41.790Z,12.90
2022-09-21T03:37:09.814Z,12.90
2022-09-21T03:39:36.741Z,12.90
2022-09-21T03:42:04.180Z,12.50
2022-09-21T03:44:31.084Z,13.00
2022-09-21T03:46:58.221Z,12.90
2022-09-21T03:49:25.170Z,12.90
2022-09-21T03:51:51.962Z,12.90
2022-09-21T03:54:18.766Z,13.00
2022-09-21T03:56:45.830Z,12.90
2022-09-21T03:59:14.316Z,13.00
2022-09-21T04:01:41.741Z,13.00
2022-09-21T04:04:09.054Z,13.00
2022-09-21T04:06:35.968Z,13.00
2022-09-21T04:09:03.541Z,12.90
2022-09-21T04:11:32.474Z,13.00
2022-09-21T04:13:59.906Z,13.00
2022-09-21T04:16:27.159Z,13.00
2022-09-21T04:18:54.481Z,13.00
2022-09-21T04:21:22.313Z,13.00
2022-09-21T04:23:49.757Z,13.00
2022-09-21T04:26:27.115Z,13.00
2022-09-21T04:28:55.197Z,13.00
2022-09-21T04:31:22.660Z,12.90
2022-09-21T04:33:53.619Z,12.90
2022-09-21T04:36:21.039Z,12.80
2022-09-21T04:38:48.177Z,12.80
2022-09-21T04:41:15.159Z,12.80
2022-09-21T04:43:43.290Z,12.80
2022-09-21T04:46:11.355Z,12.90
2022-09-21T04:48:38.476Z,12.80
2022-09-21T04:51:07.717Z,13.10
2022-09-21T04:53:35.031Z,12.80
2022-09-21T04:56:01.915Z,12.90
2022-09-21T04:58:28.616Z,12.90
2022-09-21T05:00:56.618Z,12.90
2022-09-21T05:03:24.734Z,12.80
2022-09-21T05:05:52.616Z,12.80
2022-09-21T05:08:38.259Z,12.80
2022-09-21T05:11:05.768Z,12.70
2022-09-21T05:13:32.476Z,12.70
2022-09-21T05:15:59.327Z,12.70
2022-09-21T05:18:26.082Z,12.70
2022-09-21T05:20:58.863Z,12.70
2022-09-21T05:23:26.131Z,12.80
2022-09-21T05:25:53.040Z,12.80
2022-09-21T05:28:20.208Z,12.80
2022-09-21T05:31:14.090Z,12.80
2022-09-21T05:33:40.890Z,12.80
2022-09-21T05:36:22.924Z,12.80
2022-09-21T05:38:49.864Z,12.70
2022-09-21T05:41:16.682Z,12.80
2022-09-21T05:43:43.765Z,12.50
2022-09-21T05:46:19.351Z,12.70
2022-09-21T05:48:56.083Z,12.70
2022-09-21T05:51:25.830Z,12.70
2022-09-21T05:54:11.561Z,12.70
2022-09-21T05:57:01.609Z,12.80
2022-09-21T05:59:47.521Z,12.80
2022-09-21T06:02:30.353Z,12.40
2022-09-21T06:04:57.848Z,12.80
2022-09-21T06:07:24.741Z,12.80
2022-09-21T06:09:51.600Z,12.70
2022-09-21T06:12:18.415Z,12.80
2022-09-21T06:14:45.331Z,12.80
2022-09-21T06:17:12.046Z,12.90
2022-09-21T06:19:38.841Z,12.90
2022-09-21T06:22:05.568Z,12.90
2022-09-21T06:24:32.425Z,12.90
2022-09-21T06:26:59.273Z,12.80
2022-09-21T06:29:26.068Z,12.80
2022-09-21T06:31:52.838Z,12.80
2022-09-21T06:34:19.728Z,12.70
2022-09-21T06:36:46.524Z,12.80
2022-09-21T06:39:13.657Z,12.80
2022-09-21T06:41:40.399Z,12.80
2022-09-21T06:44:10.226Z,12.80
2022-09-21T06:46:37.161Z,12.80
2022-09-21T06:49:03.957Z,12.80
2022-09-21T06:51:30.754Z,12.80
2022-09-21T06:53:58.098Z,12.80
2022-09-21T06:56:25.515Z,12.80
2022-09-21T06:58:52.624Z,12.90
2022-09-21T07:01:19.615Z,12.90
2022-09-21T07:03:49.442Z,12.90
2022-09-21T07:06:17.475Z,13.00
2022-09-21T07:11:31.476Z,13.00
2022-09-21T07:13:58.615Z,13.00
2022-09-21T07:16:25.416Z,13.00
2022-09-21T07:18:52.236Z,13.10
2022-09-21T07:21:18.995Z,13.10
2022-09-21T07:23:45.761Z,13.10
2022-09-21T07:26:13.771Z,13.20
2022-09-21T07:28:40.870Z,13.30
2022-09-21T07:31:08.902Z,13.20
2022-09-21T07:33:36.334Z,13.20
2022-09-21T07:36:10.157Z,13.20
2022-09-21T07:38:37.819Z,13.20
2022-09-21T07:41:04.696Z,13.20
2022-09-21T07:43:31.516Z,13.20
2022-09-21T07:45:58.454Z,13.30
2022-09-21T07:48:25.577Z,13.30
2022-09-21T07:50:52.369Z,13.40
2022-09-21T07:53:19.210Z,13.50
2022-09-21T07:55:45.959Z,13.60
2022-09-21T07:58:31.326Z,13.60
2022-09-21T08:00:58.158Z,13.70
2022-09-21T08:03:24.893Z,13.70
2022-09-21T08:05:52.410Z,13.80
2022-09-21T08:08:19.935Z,13.90
2022-09-21T08:10:46.810Z,13.90
2022-09-21T08:13:13.572Z,14.00
2022-09-21T08:15:50.057Z,14.00
2022-09-21T08:18:17.324Z,14.10
2022-09-21T08:20:44.050Z,14.10
2022-09-21T08:23:13.027Z,14.10
2022-09-21T08:25:39.803Z,14.20
2022-09-21T08:28:09.805Z,14.20
2022-09-21T08:30:37.120Z,14.20
2022-09-21T08:33:03.886Z,14.20
2022-09-21T08:35:30.677Z,14.20
2022-09-21T08:37:57.388Z,14.20
2022-09-21T08:40:24.392Z,14.20
2022-09-21T08:42:54.261Z,14.20
2022-09-21T08:45:21.331Z,14.20
2022-09-21T08:47:56.363Z,14.30
2022-09-21T08:50:43.432Z,14.30
2022-09-21T08:53:13.246Z,14.30
2022-09-21T08:55:39.986Z,14.30
2022-09-21T08:58:21.488Z,14.40
2022-09-21T09:00:49.977Z,14.50
2022-09-21T09:03:21.330Z,14.60
2022-09-21T09:05:48.610Z,14.60
2022-09-21T09:08:22.501Z,14.60
2022-09-21T09:11:04.406Z,14.80
2022-09-21T09:13:50.001Z,14.80
2022-09-21T09:16:40.163Z,14.90
2022-09-21T09:19:10.126Z,14.90
2022-09-21T09:21:41.624Z,15.00
2022-09-21T09:24:27.211Z,15.00
2022-09-21T09:26:57.268Z,15.10
2022-09-21T09:29:39.579Z,15.10
2022-09-21T09:32:11.029Z,15.20
2022-09-21T09:34:42.204Z,15.20
2022-09-21T09:37:13.471Z,15.20
2022-09-21T09:39:41.368Z,15.30
2022-09-21T09:42:08.125Z,15.10
2022-09-21T09:44:34.919Z,15.40
2022-09-21T09:47:21.953Z,15.40
2022-09-21T09:49:58.060Z,15.60
2022-09-21T09:52:25.733Z,15.70
2022-09-21T09:54:54.053Z,15.80
2022-09-21T09:57:26.804Z,15.80
2022-09-21T09:59:55.366Z,15.80
2022-09-21T10:02:23.263Z,15.90
2022-09-21T10:05:13.648Z,16.00
2022-09-21T10:07:45.951Z,16.10
2022-09-21T10:10:21.945Z,16.10
2022-09-21T10:12:49.845Z,16.20
2022-09-21T10:15:17.516Z,16.20
2022-09-21T10:17:47.556Z,16.30
2022-09-21T10:20:17.135Z,16.40
2022-09-21T10:22:46.373Z,16.40
2022-09-21T10:25:16.451Z,16.60
2022-09-21T10:27:45.588Z,16.60
2022-09-21T10:30:30.833Z,16.70
2022-09-21T10:32:58.946Z,16.80
2022-09-21T10:35:25.955Z,16.80
2022-09-21T10:38:09.628Z,16.80
2022-09-21T10:40:37.418Z,17.00
2022-09-21T10:43:04.473Z,17.00
2022-09-21T10:45:37.207Z,17.10
2022-09-21T10:48:08.871Z,17.10
2022-09-21T10:50:39.898Z,17.20
2022-09-21T10:53:06.699Z,17.30
2022-09-21T10:55:40.852Z,17.40
2022-09-21T10:58:11.829Z,17.60
2022-09-21T11:00:43.342Z,17.70
2022-09-21T11:03:33.391Z,17.70
2022-09-21T11:06:05.128Z,17.80
2022-09-21T11:08:38.137Z,17.90
2022-09-21T11:11:04.946Z,17.90
2022-09-21T11:13:34.204Z,18.00
2022-09-21T11:16:14.128Z,18.10
2022-09-21T11:18:44.083Z,18.20
2022-09-21T11:21:14.416Z,18.20
2022-09-21T11:23:49.440Z,18.30
2022-09-21T11:26:16.253Z,18.40
2022-09-21T11:28:46.332Z,18.50
2022-09-21T11:31:16.220Z,18.50
2022-09-21T11:34:01.597Z,18.50
2022-09-21T11:36:41.318Z,18.40
2022-09-21T11:39:20.402Z,18.30
2022-09-21T11:41:56.687Z,18.30
2022-09-21T11:44:38.716Z,18.20
2022-09-21T11:47:26.790Z,18.40
2022-09-21T11:50:13.116Z,18.60
2022-09-21T11:52:55.892Z,18.80
2022-09-21T11:55:23.428Z,19.00
2022-09-21T11:58:12.602Z,19.10
2022-09-21T12:00:59.488Z,19.10
2022-09-21T12:03:29.499Z,19.40
2022-09-21T12:06:11.997Z,19.50
2022-09-21T12:09:02.134Z,19.50
2022-09-21T12:11:35.305Z,19.50
2022-09-21T12:14:22.567Z,19.60
2022-09-21T12:16:57.954Z,19.70
2022-09-21T12:19:34.063Z,19.70
2022-09-21T12:22:10.133Z,19.80
2022-09-21T12:24:41.001Z,19.80
2022-09-21T12:27:25.671Z,19.90
2022-09-21T12:29:53.755Z,19.90
2022-09-21T12:32:39.359Z,19.90
2022-09-21T12:35:09.816Z,19.80
2022-09-21T12:37:52.080Z,19.80
2022-09-21T12:40:25.226Z,19.90
2022-09-21T12:42:55.164Z,20.10
2022-09-21T12:45:24.091Z,20.20
2022-09-21T12:48:00.032Z,20.40
2022-09-21T12:50:35.995Z,20.40
2022-09-21T12:53:04.111Z,20.60
2022-09-21T12:55:37.148Z,20.70
2022-09-21T12:58:15.129Z,20.80
2022-09-21T13:00:47.748Z,21.00
2022-09-21T13:03:19.422Z,20.80
2022-09-21T13:05:49.256Z,20.90
2022-09-21T13:08:28.810Z,20.90
2022-09-21T13:10:55.748Z,20.90
2022-09-21T13:13:28.030Z,20.90
2022-09-21T13:15:55.382Z,20.80
2022-09-21T13:18:24.014Z,20.80
2022-09-21T13:20:52.096Z,20.80
2022-09-21T13:23:24.640Z,20.90
2022-09-21T13:26:08.042Z,21.00
2022-09-21T13:28:43.024Z,21.10
2022-09-21T13:31:37.170Z,21.30
2022-09-21T13:34:15.601Z,21.50
2022-09-21T13:36:43.388Z,21.60
2022-09-21T13:39:13.212Z,21.70
2022-09-21T13:41:59.327Z,21.70
2022-09-21T13:44:40.359Z,21.80
2022-09-21T13:47:08.416Z,21.90
2022-09-21T13:49:40.753Z,21.90
2022-09-21T13:52:13.528Z,22.00
2022-09-21T13:54:50.530Z,22.20
2022-09-21T13:57:28.680Z,22.60
2022-09-21T14:00:08.102Z,22.60
2022-09-21T14:02:56.318Z,22.70
2022-09-21T14:05:23.512Z,22.90
2022-09-21T14:07:58.486Z,23.10
2022-09-21T14:10:25.826Z,23.20
2022-09-21T14:12:53.109Z,23.20
2022-09-21T14:15:22.875Z,23.10
2022-09-21T14:18:08.966Z,22.90
2022-09-21T14:20:39.783Z,22.70
2022-09-21T14:23:16.407Z,22.40
2022-09-21T14:25:56.647Z,22.20
2022-09-21T14:28:36.495Z,22.00
2022-09-21T14:31:06.797Z,21.80
2022-09-21T14:33:57.224Z,21.70
2022-09-21T14:36:41.405Z,21.60
2022-09-21T14:39:25.551Z,21.50
2022-09-21T14:41:54.953Z,21.40
2022-09-21T14:44:23.008Z,21.30
2022-09-21T14:46:49.812Z,21.30
2022-09-21T14:49:18.787Z,21.20
2022-09-21T14:51:45.523Z,21.10
2022-09-21T14:54:17.437Z,21.10
2022-09-21T14:57:03.194Z,20.90
2022-09-21T14:59:30.002Z,20.80
2022-09-21T15:02:29.434Z,20.80
2022-09-21T15:05:12.295Z,20.70
2022-09-21T15:08:16.901Z,20.50
2022-09-21T15:11:02.240Z,20.40
2022-09-21T15:13:35.592Z,20.30
2022-09-21T15:16:18.164Z,20.20
2022-09-21T15:18:46.027Z,20.20
2022-09-21T15:21:21.682Z,20.20
2022-09-21T15:23:49.392Z,20.20
2022-09-21T15:26:20.695Z,20.50
2022-09-21T15:29:08.982Z,20.70
2022-09-21T15:31:38.577Z,21.00
2022-09-21T15:34:09.439Z,21.40
2022-09-21T15:36:38.204Z,21.60
2022-09-21T15:39:05.306Z,21.80
2022-09-21T15:41:40.176Z,22.10
2022-09-21T15:44:12.924Z,22.20
2022-09-21T15:46:41.665Z,22.50
2022-09-21T15:49:12.892Z,22.70
2022-09-21T15:51:41.703Z,22.80
2022-09-21T15:54:27.414Z,22.90
2022-09-21T15:56:55.697Z,23.10
2022-09-21T15:59:22.934Z,22.80
2022-09-21T16:01:53.270Z,23.20
2022-09-21T16:04:22.119Z,23.00
2022-09-21T16:07:09.261Z,22.90
2022-09-21T16:09:43.705Z,22.80
2022-09-21T16:12:26.003Z,22.80
2022-09-21T16:15:00.720Z,22.90
2022-09-21T16:17:37.055Z,22.90
2022-09-21T16:20:15.195Z,22.90
2022-09-21T16:22:44.151Z,22.90
2022-09-21T16:25:14.012Z,22.90
2022-09-21T16:27:49.144Z,22.90
2022-09-21T16:30:35.837Z,22.80
2022-09-21T16:33:06.178Z,22.80
2022-09-21T16:35:40.322Z,22.60
2022-09-21T16:38:10.244Z,22.50
2022-09-21T16:40:37.103Z,22.40
2022-09-21T16:43:05.302Z,22.30
2022-09-21T16:45:32.348Z,22.10
2022-09-21T16:47:59.561Z,22.00
2022-09-21T16:50:26.488Z,21.80
2022-09-21T16:52:53.430Z,21.50
2022-09-21T16:55:23.453Z,21.30
2022-09-21T16:57:53.857Z,21.00
2022-09-21T17:00:20.762Z,20.80
2022-09-21T17:02:48.324Z,20.60
2022-09-21T17:05:18.114Z,20.40
2022-09-21T17:07:49.678Z,20.20
2022-09-21T17:10:16.590Z,20.10
2022-09-21T17:12:44.015Z,19.90
2022-09-21T17:15:12.566Z,19.70
2022-09-21T17:17:39.332Z,19.60
2022-09-21T17:20:16.018Z,19.40
2022-09-21T17:22:42.857Z,19.30
2022-09-21T17:25:10.225Z,19.10
2022-09-21T17:27:38.548Z,19.00
2022-09-21T17:30:11.450Z,18.80
2022-09-21T17:32:38.998Z,18.80
2022-09-21T17:35:25.264Z,18.60
2022-09-21T17:37:52.076Z,18.50
2022-09-21T17:40:19.154Z,18.40
2022-09-21T17:42:48.545Z,18.30
2022-09-21T17:45:35.995Z,17.90
2022-09-21T17:48:03.219Z,18.10
2022-09-21T17:50:30.102Z,18.00
2022-09-21T17:53:15.974Z,17.90
2022-09-21T17:55:49.386Z,17.80
2022-09-21T17:58:39.927Z,17.80
2022-09-21T18:01:08.311Z,17.70
2022-09-21T18:03:40.970Z,17.60
2022-09-21T18:06:09.243Z,17.50
2022-09-21T18:08:36.633Z,17.50
2022-09-21T18:11:03.944Z,17.40
2022-09-21T18:13:39.089Z,17.40
2022-09-21T18:16:10.180Z,17.30
2022-09-21T18:18:36.989Z,17.10
2022-09-21T18:21:05.125Z,17.10
2022-09-21T18:23:51.970Z,17.00
2022-09-21T18:29:22.566Z,16.80
2022-09-21T18:32:06.573Z,16.80
2022-09-21T18:34:36.473Z,16.80
2022-09-21T18:37:03.232Z,16.70
2022-09-21T18:39:49.176Z,16.70
2022-09-21T18:42:19.115Z,16.60
2022-09-21T18:44:58.671Z,16.60
2022-09-21T18:47:50.770Z,16.60
2022-09-21T18:50:20.034Z,16.60
2022-09-21T18:53:01.404Z,16.50
2022-09-21T18:55:31.817Z,16.50
2022-09-21T18:57:59.911Z,16.40
2022-09-21T19:00:31.686Z,16.40
2022-09-21T19:03:16.329Z,16.30
2022-09-21T19:05:53.562Z,16.30
2022-09-21T19:08:26.052Z,16.00
2022-09-21T19:11:13.547Z,16.20
2022-09-21T19:13:49.615Z,16.10
2022-09-21T19:16:35.912Z,16.10
2022-09-21T19:19:12.387Z,16.00
2022-09-21T19:21:42.748Z,16.00
2022-09-21T19:24:26.341Z,16.00
2022-09-21T19:27:08.303Z,15.90
2022-09-21T19:30:12.643Z,15.80
2022-09-21T19:32:51.454Z,15.80
2022-09-21T19:35:29.577Z,15.80
2022-09-21T19:37:58.387Z,15.80
2022-09-21T19:40:37.378Z,15.70
2022-09-21T19:43:11.912Z,15.60
2022-09-21T19:45:45.403Z,15.60
2022-09-21T19:48:14.745Z,15.50
2022-09-21T19:51:00.424Z,15.40
2022-09-21T19:53:46.631Z,15.40
2022-09-21T19:56:33.231Z,15.30
2022-09-21T19:59:19.616Z,15.30
2022-09-21T20:01:52.677Z,15.30
2022-09-21T20:04:26.650Z,15.30
2022-09-21T20:06:57.154Z,15.20
2022-09-21T20:09:29.303Z,15.20
2022-09-21T20:12:02.605Z,15.20
2022-09-21T20:14:34.194Z,15.10
2022-09-21T20:17:02.564Z,15.20
2022-09-21T20:19:48.727Z,15.10
2022-09-21T20:22:17.113Z,15.10
2022-09-21T20:24:44.141Z,15.00
2022-09-21T20:27:37.249Z,15.00
2022-09-21T20:30:05.981Z,14.90
2022-09-21T20:32:34.307Z,15.00
2022-09-21T20:35:01.307Z,14.90
2022-09-21T20:37:30.321Z,14.90
2022-09-21T20:39:57.679Z,14.90
2022-09-21T20:42:25.219Z,14.90
2022-09-21T20:44:53.117Z,14.80
2022-09-21T20:47:20.988Z,14.80
2022-09-21T20:49:50.517Z,14.80
2022-09-21T20:52:17.518Z,14.80
2022-09-21T20:54:48.943Z,14.70
2022-09-21T20:57:18.150Z,14.70
2022-09-21T20:59:45.016Z,14.50
2022-09-21T21:02:12.779Z,14.70
2022-09-21T21:04:41.049Z,14.70
2022-09-21T21:07:08.060Z,14.60
2022-09-21T21:09:35.678Z,14.70
2022-09-21T21:12:04.239Z,14.60
2022-09-21T21:14:31.395Z,14.60
2022-09-21T21:16:58.521Z,14.60
2022-09-21T21:19:26.536Z,14.60
2022-09-21T21:21:54.566Z,14.20
2022-09-21T21:24:40.391Z,14.60
2022-09-21T21:27:11.718Z,14.50
2022-09-21T21:29:41.652Z,14.50
2022-09-21T21:32:08.657Z,14.40
2022-09-21T21:34:38.704Z,14.40
2022-09-21T21:37:05.784Z,14.20
2022-09-21T21:39:33.946Z,14.40
2022-09-21T21:42:03.663Z,14.40
2022-09-21T21:44:31.299Z,14.40
2022-09-21T21:47:10.283Z,14.40
2022-09-21T21:49:45.657Z,14.40
2022-09-21T21:52:13.372Z,14.30
2022-09-21T21:54:40.530Z,14.30
2022-09-21T21:57:10.148Z,14.20
2022-09-21T21:59:38.399Z,14.20
2022-09-21T22:02:05.687Z,14.20
2022-09-21T22:04:33.673Z,14.10
2022-09-21T22:07:00.960Z,14.10
2022-09-21T22:09:28.363Z,14.10
2022-09-21T22:11:55.692Z,14.10
2022-09-21T22:14:23.749Z,14.00
2022-09-21T22:16:51.521Z,14.00
2022-09-21T22:19:18.543Z,13.90
2022-09-21T22:21:51.726Z,14.00
2022-09-21T22:24:21.371Z,13.90
2022-09-21T22:26:49.511Z,13.90
2022-09-21T22:29:18.137Z,13.80
2022-09-21T22:31:47.287Z,13.80
2022-09-21T22:34:15.054Z,13.70
2022-09-21T22:36:43.948Z,13.70
2022-09-21T22:39:11.260Z,13.70
2022-09-21T22:41:39.979Z,13.60
2022-09-21T22:44:10.708Z,13.60
2022-09-21T22:46:38.280Z,13.60
2022-09-21T22:49:05.465Z,13.60
2022-09-21T22:51:32.688Z,13.60
2022-09-21T22:53:59.661Z,13.60
2022-09-21T22:56:28.114Z,13.50
2022-09-21T22:58:56.437Z,13.40
2022-09-21T23:05:06.783Z,13.40
2022-09-21T23:07:34.335Z,13.30
2022-09-21T23:10:01.283Z,13.20
2022-09-21T23:12:28.929Z,13.20
2022-09-21T23:14:58.896Z,13.30
2022-09-21T23:17:32.029Z,13.20
2022-09-21T23:20:00.752Z,13.30
2022-09-21T23:22:27.847Z,13.20
2022-09-21T23:24:54.766Z,13.30
2022-09-21T23:27:21.712Z,13.30
2022-09-21T23:29:48.889Z,13.20
2022-09-21T23:32:15.872Z,13.20
2022-09-21T23:34:44.667Z,13.20
2022-09-21T23:37:11.587Z,13.10
2022-09-21T23:39:39.416Z,13.20
2022-09-21T23:42:06.746Z,13.20
2022-09-21T23:44:35.508Z,13.10
2022-09-21T23:47:02.568Z,12.70
2022-09-21T23:49:29.574Z,13.10
2022-09-21T23:51:56.419Z,13.10
2022-09-21T23:54:23.467Z,13.10
2022-09-21T23:56:50.321Z,13.10
2022-09-21T23:59:17.260Z,13.10
